sensor_id;sensor_type;location;lat;lon;timestamp;temperature;humidity
210;DHT22;90;48.810;9.120;2024-02-21T00:00:11;8.50;76.90
210;DHT22;90;48.810;9.120;2024-02-21T00:02:38;8.50;76.80
210;DHT22;90;48.810;9.120;2024-02-21T00:05:07;8.50;76.70
210;DHT22;90;48.810;9.120;2024-02-21T00:07:33;8.50;76.90
210;DHT22;90;48.810;9.120;2024-02-21T00:10:00;8.50;76.90
210;DHT22;90;48.810;9.120;2024-02-21T00:12:27;8.40;77.00
210;DHT22;90;48.810;9.120;2024-02-21T00:14:53;8.50;77.00
210;DHT22;90;48.810;9.120;2024-02-21T00:17:20;8.50;76.80
210;DHT22;90;48.810;9.120;2024-02-21T00:19:47;8.50;76.70
210;DHT22;90;48.810;9.120;2024-02-21T00:22:14;8.50;76.50
210;DHT22;90;48.810;9.120;2024-02-21T00:24:42;8.50;76.70
210;DHT22;90;48.810;9.120;2024-02-21T00:27:08;8.50;76.80
210;DHT22;90;48.810;9.120;2024-02-21T00:29:35;8.50;76.80
210;DHT22;90;48.810;9.120;2024-02-21T00:32:02;8.40;77.00
210;DHT22;90;48.810;9.120;2024-02-21T00:34:28;8.40;77.10
210;DHT22;90;48.810;9.120;2024-02-21T00:36:55;8.40;77.20
210;DHT22;90;48.810;9.120;2024-02-21T00:39:23;8.40;77.20
210;DHT22;90;48.810;9.120;2024-02-21T00:41:50;8.40;77.20
210;DHT22;90;48.810;9.120;2024-02-21T00:44:19;8.50;77.20
210;DHT22;90;48.810;9.120;2024-02-21T00:46:46;8.50;77.00
210;DHT22;90;48.810;9.120;2024-02-21T00:49:13;8.40;77.10
210;DHT22;90;48.810;9.120;2024-02-21T00:51:39;8.40;77.30
210;DHT22;90;48.810;9.120;2024-02-21T00:54:06;8.40;77.40
210;DHT22;90;48.810;9.120;2024-02-21T00:56:34;8.40;77.60
210;DHT22;90;48.810;9.120;2024-02-21T00:59:01;8.40;77.90
210;DHT22;90;48.810;9.120;2024-02-21T01:01:28;8.40;77.80
210;DHT22;90;48.810;9.120;2024-02-21T01:03:54;8.40;77.70
210;DHT22;90;48.810;9.120;2024-02-21T01:06:21;8.40;77.90
210;DHT22;90;48.810;9.120;2024-02-21T01:08:49;8.30;77.90
210;DHT22;90;48.810;9.120;2024-02-21T01:11:15;8.40;77.80
210;DHT22;90;48.810;9.120;2024-02-21T01:13:44;8.40;77.90
210;DHT22;90;48.810;9.120;2024-02-21T01:16:11;8.40;77.80
210;DHT22;90;48.810;9.120;2024-02-21T01:18:38;8.30;78.20
210;DHT22;90;48.810;9.120;2024-02-21T01:21:04;8.30;78.60
210;DHT22;90;48.810;9.120;2024-02-21T01:23:32;8.20;78.70
210;DHT22;90;48.810;9.120;2024-02-21T01:25:59;8.10;79.10
210;DHT22;90;48.810;9.120;2024-02-21T01:28:25;8.20;78.70
210;DHT22;90;48.810;9.120;2024-02-21T01:30:53;8.20;78.80
210;DHT22;90;48.810;9.120;2024-02-21T01:33:21;8.10;78.80
210;DHT22;90;48.810;9.120;2024-02-21T01:35:48;8.10;79.10
210;DHT22;90;48.810;9.120;2024-02-21T01:38:15;8.10;79.00
210;DHT22;90;48.810;9.120;2024-02-21T01:40:41;8.10;79.00
210;DHT22;90;48.810;9.120;2024-02-21T01:43:16;8.00;79.00
210;DHT22;90;48.810;9.120;2024-02-21T01:45:43;8.10;78.80
210;DHT22;90;48.810;9.120;2024-02-21T01:48:11;8.10;78.90
210;DHT22;90;48.810;9.120;2024-02-21T01:50:39;8.10;78.90
210;DHT22;90;48.810;9.120;2024-02-21T01:53:07;8.10;78.80
210;DHT22;90;48.810;9.120;2024-02-21T01:55:34;8.20;78.50
210;DHT22;90;48.810;9.120;2024-02-21T01:58:01;8.20;78.50
210;DHT22;90;48.810;9.120;2024-02-21T02:00:28;8.20;78.20
210;DHT22;90;48.810;9.120;2024-02-21T02:02:55;8.30;78.00
210;DHT22;90;48.810;9.120;2024-02-21T02:05:23;8.20;78.00
210;DHT22;90;48.810;9.120;2024-02-21T02:07:50;8.10;78.10
210;DHT22;90;48.810;9.120;2024-02-21T02:10:17;8.00;78.60
210;DHT22;90;48.810;9.120;2024-02-21T02:12:44;8.00;78.70
210;DHT22;90;48.810;9.120;2024-02-21T02:15:10;7.90;78.90
210;DHT22;90;48.810;9.120;2024-02-21T02:17:37;8.00;78.70
210;DHT22;90;48.810;9.120;2024-02-21T02:20:05;7.90;78.80
210;DHT22;90;48.810;9.120;2024-02-21T02:22:35;7.90;79.00
210;DHT22;90;48.810;9.120;2024-02-21T02:25:05;8.00;78.90
210;DHT22;90;48.810;9.120;2024-02-21T02:27:31;8.10;78.30
210;DHT22;90;48.810;9.120;2024-02-21T02:29:58;8.00;78.20
210;DHT22;90;48.810;9.120;2024-02-21T02:32:25;8.00;78.40
210;DHT22;90;48.810;9.120;2024-02-21T02:34:51;8.00;78.40
210;DHT22;90;48.810;9.120;2024-02-21T02:37:18;8.10;78.30
210;DHT22;90;48.810;9.120;2024-02-21T02:39:45;8.20;77.80
210;DHT22;90;48.810;9.120;2024-02-21T02:42:13;8.10;77.90
210;DHT22;90;48.810;9.120;2024-02-21T02:44:39;8.10;77.90
210;DHT22;90;48.810;9.120;2024-02-21T02:47:06;8.10;78.00
210;DHT22;90;48.810;9.120;2024-02-21T02:49:33;8.20;78.00
210;DHT22;90;48.810;9.120;2024-02-21T02:51:59;8.20;78.00
210;DHT22;90;48.810;9.120;2024-02-21T02:54:26;8.20;78.40
210;DHT22;90;48.810;9.120;2024-02-21T02:56:53;8.10;78.80
210;DHT22;90;48.810;9.120;2024-02-21T02:59:21;8.20;79.00
210;DHT22;90;48.810;9.120;2024-02-21T03:01:47;8.30;79.00
210;DHT22;90;48.810;9.120;2024-02-21T03:04:14;8.20;79.10
210;DHT22;90;48.810;9.120;2024-02-21T03:06:41;8.20;79.40
210;DHT22;90;48.810;9.120;2024-02-21T03:09:07;8.30;79.10
210;DHT22;90;48.810;9.120;2024-02-21T03:11:35;8.20;79.00
210;DHT22;90;48.810;9.120;2024-02-21T03:14:02;8.20;79.10
210;DHT22;90;48.810;9.120;2024-02-21T03:16:30;8.00;79.60
210;DHT22;90;48.810;9.120;2024-02-21T03:18:57;8.00;79.90
210;DHT22;90;48.810;9.120;2024-02-21T03:21:23;8.00;80.40
210;DHT22;90;48.810;9.120;2024-02-21T03:23:50;8.00;80.70
210;DHT22;90;48.810;9.120;2024-02-21T03:26:17;8.00;80.50
210;DHT22;90;48.810;9.120;2024-02-21T03:28:44;8.00;80.50
210;DHT22;90;48.810;9.120;2024-02-21T03:31:12;8.10;80.30
210;DHT22;90;48.810;9.120;2024-02-21T03:33:42;8.20;80.70
210;DHT22;90;48.810;9.120;2024-02-21T03:36:13;8.20;80.60
210;DHT22;90;48.810;9.120;2024-02-21T03:38:40;8.20;80.40
210;DHT22;90;48.810;9.120;2024-02-21T07:48:38;8.60;73.10
210;DHT22;90;48.810;9.120;2024-02-21T07:51:05;8.80;78.40
210;DHT22;90;48.810;9.120;2024-02-21T07:53:31;8.80;76.00
210;DHT22;90;48.810;9.120;2024-02-21T07:55:58;8.70;73.70
210;DHT22;90;48.810;9.120;2024-02-21T07:58:26;8.60;73.60
210;DHT22;90;48.810;9.120;2024-02-21T08:00:52;8.60;73.20
210;DHT22;90;48.810;9.120;2024-02-21T08:03:19;8.70;73.40
210;DHT22;90;48.810;9.120;2024-02-21T08:05:48;8.70;73.10
210;DHT22;90;48.810;9.120;2024-02-21T08:08:14;8.70;73.40
210;DHT22;90;48.810;9.120;2024-02-21T08:10:45;8.70;73.20
210;DHT22;90;48.810;9.120;2024-02-21T08:13:12;8.70;73.00
210;DHT22;90;48.810;9.120;2024-02-21T08:15:38;8.70;73.40
210;DHT22;90;48.810;9.120;2024-02-21T08:18:07;8.80;72.70
210;DHT22;90;48.810;9.120;2024-02-21T08:20:33;8.80;72.60
210;DHT22;90;48.810;9.120;2024-02-21T08:23:02;8.80;72.10
210;DHT22;90;48.810;9.120;2024-02-21T08:25:28;8.80;72.60
210;DHT22;90;48.810;9.120;2024-02-21T08:27:58;8.80;72.40
210;DHT22;90;48.810;9.120;2024-02-21T08:30:25;8.80;72.30
210;DHT22;90;48.810;9.120;2024-02-21T08:32:52;8.90;72.30
210;DHT22;90;48.810;9.120;2024-02-21T08:35:19;8.90;72.20
210;DHT22;90;48.810;9.120;2024-02-21T08:37:47;9.00;72.00
210;DHT22;90;48.810;9.120;2024-02-21T08:40:16;9.10;71.70
210;DHT22;90;48.810;9.120;2024-02-21T08:42:46;9.00;71.90
210;DHT22;90;48.810;9.120;2024-02-21T08:45:13;9.10;71.90
210;DHT22;90;48.810;9.120;2024-02-21T08:47:40;9.10;71.60
210;DHT22;90;48.810;9.120;2024-02-21T08:50:07;9.00;72.30
210;DHT22;90;48.810;9.120;2024-02-21T08:52:35;9.00;72.30
210;DHT22;90;48.810;9.120;2024-02-21T08:55:01;9.10;72.00
210;DHT22;90;48.810;9.120;2024-02-21T08:57:30;9.20;71.70
210;DHT22;90;48.810;9.120;2024-02-21T09:00:03;9.20;71.60
210;DHT22;90;48.810;9.120;2024-02-21T09:02:35;9.20;71.40
210;DHT22;90;48.810;9.120;2024-02-21T09:05:03;9.20;72.00
210;DHT22;90;48.810;9.120;2024-02-21T09:07:30;9.30;71.90
210;DHT22;90;48.810;9.120;2024-02-21T09:09:57;9.40;71.80
210;DHT22;90;48.810;9.120;2024-02-21T09:12:24;9.40;71.20
210;DHT22;90;48.810;9.120;2024-02-21T09:14:52;9.40;71.10
210;DHT22;90;48.810;9.120;2024-02-21T09:17:18;9.40;71.50
210;DHT22;90;48.810;9.120;2024-02-21T09:19:46;9.40;71.70
210;DHT22;90;48.810;9.120;2024-02-21T09:22:13;9.50;71.20
210;DHT22;90;48.810;9.120;2024-02-21T09:24:40;9.60;70.60
210;DHT22;90;48.810;9.120;2024-02-21T09:27:06;9.70;70.50
210;DHT22;90;48.810;9.120;2024-02-21T09:29:33;9.70;69.90
210;DHT22;90;48.810;9.120;2024-02-21T09:32:01;9.70;69.60
210;DHT22;90;48.810;9.120;2024-02-21T09:34:29;9.80;71.30
210;DHT22;90;48.810;9.120;2024-02-21T09:36:55;9.90;69.60
210;DHT22;90;48.810;9.120;2024-02-21T09:39:22;9.90;69.60
210;DHT22;90;48.810;9.120;2024-02-21T09:42:03;9.90;68.30
210;DHT22;90;48.810;9.120;2024-02-21T09:44:36;10.00;67.80
210;DHT22;90;48.810;9.120;2024-02-21T09:47:07;10.10;67.30
210;DHT22;90;48.810;9.120;2024-02-21T09:49:37;10.10;67.70
210;DHT22;90;48.810;9.120;2024-02-21T09:52:05;10.20;67.20
210;DHT22;90;48.810;9.120;2024-02-21T09:54:33;10.30;65.90
210;DHT22;90;48.810;9.120;2024-02-21T09:57:00;10.30;65.00
210;DHT22;90;48.810;9.120;2024-02-21T09:59:28;10.40;65.10
210;DHT22;90;48.810;9.120;2024-02-21T10:01:57;10.60;64.80
210;DHT22;90;48.810;9.120;2024-02-21T10:04:27;10.50;64.40
210;DHT22;90;48.810;9.120;2024-02-21T10:06:54;10.60;65.20
210;DHT22;90;48.810;9.120;2024-02-21T10:09:22;10.70;64.20
210;DHT22;90;48.810;9.120;2024-02-21T10:11:49;10.80;64.30
210;DHT22;90;48.810;9.120;2024-02-21T10:14:16;10.90;63.70
210;DHT22;90;48.810;9.120;2024-02-21T10:16:44;11.00;63.60
210;DHT22;90;48.810;9.120;2024-02-21T10:19:20;11.10;63.50
210;DHT22;90;48.810;9.120;2024-02-21T10:22:01;11.20;63.00
210;DHT22;90;48.810;9.120;2024-02-21T10:24:29;11.20;62.60
210;DHT22;90;48.810;9.120;2024-02-21T10:27:01;11.20;62.30
210;DHT22;90;48.810;9.120;2024-02-21T10:29:28;11.20;63.00
210;DHT22;90;48.810;9.120;2024-02-21T10:32:04;11.20;63.60
210;DHT22;90;48.810;9.120;2024-02-21T10:34:31;11.20;62.70
210;DHT22;90;48.810;9.120;2024-02-21T10:37:01;11.10;62.60
210;DHT22;90;48.810;9.120;2024-02-21T10:39:29;11.10;62.80
210;DHT22;90;48.810;9.120;2024-02-21T10:41:56;11.10;63.40
210;DHT22;90;48.810;9.120;2024-02-21T10:44:26;11.10;62.90
210;DHT22;90;48.810;9.120;2024-02-21T10:46:55;11.10;62.90
210;DHT22;90;48.810;9.120;2024-02-21T10:49:26;11.10;63.30
210;DHT22;90;48.810;9.120;2024-02-21T10:51:55;11.10;63.00
210;DHT22;90;48.810;9.120;2024-02-21T10:54:39;11.20;62.90
210;DHT22;90;48.810;9.120;2024-02-21T10:57:07;11.30;61.40
210;DHT22;90;48.810;9.120;2024-02-21T10:59:37;11.30;59.90
210;DHT22;90;48.810;9.120;2024-02-21T11:02:08;11.30;60.70
210;DHT22;90;48.810;9.120;2024-02-21T11:04:41;11.30;60.20
210;DHT22;90;48.810;9.120;2024-02-21T11:07:08;11.20;60.80
210;DHT22;90;48.810;9.120;2024-02-21T11:09:37;11.30;61.40
210;DHT22;90;48.810;9.120;2024-02-21T11:12:07;11.30;61.60
210;DHT22;90;48.810;9.120;2024-02-21T11:14:34;11.40;60.60
210;DHT22;90;48.810;9.120;2024-02-21T11:17:14;11.40;59.80
210;DHT22;90;48.810;9.120;2024-02-21T11:19:45;11.50;60.50
210;DHT22;90;48.810;9.120;2024-02-21T11:22:16;11.60;60.90
210;DHT22;90;48.810;9.120;2024-02-21T11:24:45;11.70;60.40
210;DHT22;90;48.810;9.120;2024-02-21T11:27:13;11.70;60.20
210;DHT22;90;48.810;9.120;2024-02-21T11:29:40;11.70;60.30
210;DHT22;90;48.810;9.120;2024-02-21T11:32:09;11.80;57.80
210;DHT22;90;48.810;9.120;2024-02-21T11:34:36;11.80;57.60
210;DHT22;90;48.810;9.120;2024-02-21T11:37:13;12.50;83.90
210;DHT22;90;48.810;9.120;2024-02-21T11:39:41;13.30;73.70
210;DHT22;90;48.810;9.120;2024-02-21T11:42:12;13.70;78.70
210;DHT22;90;48.810;9.120;2024-02-21T11:44:39;14.00;68.80
210;DHT22;90;48.810;9.120;2024-02-21T11:47:08;13.90;56.00
210;DHT22;90;48.810;9.120;2024-02-21T11:49:37;13.70;54.80
210;DHT22;90;48.810;9.120;2024-02-21T11:52:05;13.30;53.30
210;DHT22;90;48.810;9.120;2024-02-21T11:54:32;13.10;54.20
210;DHT22;90;48.810;9.120;2024-02-21T11:56:59;12.90;55.10
210;DHT22;90;48.810;9.120;2024-02-21T11:59:30;12.70;54.90
210;DHT22;90;48.810;9.120;2024-02-21T12:02:00;12.60;56.50
210;DHT22;90;48.810;9.120;2024-02-21T12:04:28;12.40;55.50
210;DHT22;90;48.810;9.120;2024-02-21T12:06:57;12.30;55.60
210;DHT22;90;48.810;9.120;2024-02-21T12:09:24;12.30;56.30
210;DHT22;90;48.810;9.120;2024-02-21T12:11:57;12.30;56.50
210;DHT22;90;48.810;9.120;2024-02-21T12:14:24;12.30;56.40
210;DHT22;90;48.810;9.120;2024-02-21T12:16:53;12.30;56.90
210;DHT22;90;48.810;9.120;2024-02-21T12:19:23;12.40;57.10
210;DHT22;90;48.810;9.120;2024-02-21T12:21:50;12.30;55.70
210;DHT22;90;48.810;9.120;2024-02-21T12:24:21;12.30;56.00
210;DHT22;90;48.810;9.120;2024-02-21T12:26:53;12.30;56.60
210;DHT22;90;48.810;9.120;2024-02-21T12:29:20;12.30;57.10
210;DHT22;90;48.810;9.120;2024-02-21T12:31:50;12.40;56.80
210;DHT22;90;48.810;9.120;2024-02-21T12:34:22;12.50;57.10
210;DHT22;90;48.810;9.120;2024-02-21T12:36:52;12.60;56.80
210;DHT22;90;48.810;9.120;2024-02-21T12:39:19;12.60;56.20
210;DHT22;90;48.810;9.120;2024-02-21T12:41:54;12.60;55.50
210;DHT22;90;48.810;9.120;2024-02-21T12:44:35;12.50;56.10
210;DHT22;90;48.810;9.120;2024-02-21T12:47:04;12.60;56.30
210;DHT22;90;48.810;9.120;2024-02-21T12:49:32;12.70;56.20
210;DHT22;90;48.810;9.120;2024-02-21T12:52:00;12.70;55.70
210;DHT22;90;48.810;9.120;2024-02-21T12:54:29;12.70;56.20
210;DHT22;90;48.810;9.120;2024-02-21T12:56:56;12.70;55.50
210;DHT22;90;48.810;9.120;2024-02-21T12:59:25;12.80;55.90
210;DHT22;90;48.810;9.120;2024-02-21T13:01:56;12.70;56.40
210;DHT22;90;48.810;9.120;2024-02-21T13:04:28;12.70;56.00
210;DHT22;90;48.810;9.120;2024-02-21T13:06:58;12.60;56.00
210;DHT22;90;48.810;9.120;2024-02-21T13:09:42;12.70;56.60
210;DHT22;90;48.810;9.120;2024-02-21T13:12:09;12.70;56.40
210;DHT22;90;48.810;9.120;2024-02-21T13:14:48;12.70;55.40
210;DHT22;90;48.810;9.120;2024-02-21T13:17:17;12.70;55.60
210;DHT22;90;48.810;9.120;2024-02-21T13:19:49;12.80;56.00
210;DHT22;90;48.810;9.120;2024-02-21T13:23:10;12.80;56.10
210;DHT22;90;48.810;9.120;2024-02-21T13:26:56;12.90;56.20
210;DHT22;90;48.810;9.120;2024-02-21T13:28:35;13.00;54.80
210;DHT22;90;48.810;9.120;2024-02-21T13:31:33;13.10;53.20
210;DHT22;90;48.810;9.120;2024-02-21T13:34:29;12.90;54.10
210;DHT22;90;48.810;9.120;2024-02-21T13:37:10;12.90;54.20
210;DHT22;90;48.810;9.120;2024-02-21T13:39:39;12.90;55.00
210;DHT22;90;48.810;9.120;2024-02-21T13:42:13;12.80;55.20
210;DHT22;90;48.810;9.120;2024-02-21T13:44:41;12.80;55.30
210;DHT22;90;48.810;9.120;2024-02-21T13:47:12;12.80;54.40
210;DHT22;90;48.810;9.120;2024-02-21T13:49:45;12.80;54.70
210;DHT22;90;48.810;9.120;2024-02-21T13:52:24;12.80;54.50
210;DHT22;90;48.810;9.120;2024-02-21T13:55:07;12.80;53.70
210;DHT22;90;48.810;9.120;2024-02-21T13:57:42;12.70;54.30
210;DHT22;90;48.810;9.120;2024-02-21T14:00:17;12.70;54.00
210;DHT22;90;48.810;9.120;2024-02-21T14:02:47;12.70;53.20
210;DHT22;90;48.810;9.120;2024-02-21T14:08:07;12.70;52.80
210;DHT22;90;48.810;9.120;2024-02-21T14:10:38;12.70;52.30
210;DHT22;90;48.810;9.120;2024-02-21T14:13:20;12.70;52.60
210;DHT22;90;48.810;9.120;2024-02-21T14:15:57;12.70;51.90
210;DHT22;90;48.810;9.120;2024-02-21T14:18:26;12.70;51.20
210;DHT22;90;48.810;9.120;2024-02-21T14:20:55;12.70;51.10
210;DHT22;90;48.810;9.120;2024-02-21T14:23:22;12.60;52.00
210;DHT22;90;48.810;9.120;2024-02-21T14:25:50;12.60;52.10
210;DHT22;90;48.810;9.120;2024-02-21T14:28:17;12.60;52.00
210;DHT22;90;48.810;9.120;2024-02-21T14:30:44;12.70;51.60
210;DHT22;90;48.810;9.120;2024-02-21T14:33:13;12.60;51.70
210;DHT22;90;48.810;9.120;2024-02-21T14:35:39;12.60;51.90
210;DHT22;90;48.810;9.120;2024-02-21T14:38:07;13.10;62.20
210;DHT22;90;48.810;9.120;2024-02-21T14:40:34;13.10;52.70
210;DHT22;90;48.810;9.120;2024-02-21T14:43:02;13.30;54.00
210;DHT22;90;48.810;9.120;2024-02-21T14:45:29;13.20;52.60
210;DHT22;90;48.810;9.120;2024-02-21T14:47:56;13.20;51.20
210;DHT22;90;48.810;9.120;2024-02-21T14:50:23;13.10;49.50
210;DHT22;90;48.810;9.120;2024-02-21T14:52:50;13.00;49.50
210;DHT22;90;48.810;9.120;2024-02-21T14:55:17;12.90;49.70
210;DHT22;90;48.810;9.120;2024-02-21T14:57:44;12.90;50.00
210;DHT22;90;48.810;9.120;2024-02-21T15:00:13;12.80;47.90
210;DHT22;90;48.810;9.120;2024-02-21T15:02:40;12.80;47.00
210;DHT22;90;48.810;9.120;2024-02-21T15:05:08;12.70;47.40
210;DHT22;90;48.810;9.120;2024-02-21T15:07:35;12.70;47.60
210;DHT22;90;48.810;9.120;2024-02-21T15:10:02;12.70;47.30
210;DHT22;90;48.810;9.120;2024-02-21T15:12:29;12.70;47.40
210;DHT22;90;48.810;9.120;2024-02-21T15:14:57;12.60;47.60
210;DHT22;90;48.810;9.120;2024-02-21T15:17:26;12.60;47.40
210;DHT22;90;48.810;9.120;2024-02-21T15:19:52;12.50;46.40
210;DHT22;90;48.810;9.120;2024-02-21T15:22:20;12.60;46.80
210;DHT22;90;48.810;9.120;2024-02-21T15:24:48;12.60;47.00
210;DHT22;90;48.810;9.120;2024-02-21T15:27:15;12.60;47.40
210;DHT22;90;48.810;9.120;2024-02-21T15:29:42;12.50;48.10
210;DHT22;90;48.810;9.120;2024-02-21T15:32:10;12.50;47.20
210;DHT22;90;48.810;9.120;2024-02-21T15:34:38;12.50;47.40
210;DHT22;90;48.810;9.120;2024-02-21T15:37:05;12.50;47.30
210;DHT22;90;48.810;9.120;2024-02-21T15:39:31;12.50;47.20
210;DHT22;90;48.810;9.120;2024-02-21T15:41:58;12.60;47.90
210;DHT22;90;48.810;9.120;2024-02-21T15:44:25;12.60;46.90
210;DHT22;90;48.810;9.120;2024-02-21T15:46:51;12.50;47.00
210;DHT22;90;48.810;9.120;2024-02-21T15:49:19;12.50;46.80
210;DHT22;90;48.810;9.120;2024-02-21T15:51:47;12.40;47.30
210;DHT22;90;48.810;9.120;2024-02-21T15:54:14;12.40;47.60
210;DHT22;90;48.810;9.120;2024-02-21T15:56:42;12.40;47.40
210;DHT22;90;48.810;9.120;2024-02-21T15:59:09;12.40;47.40
210;DHT22;90;48.810;9.120;2024-02-21T16:01:36;12.40;47.70
210;DHT22;90;48.810;9.120;2024-02-21T16:04:04;12.40;48.20
210;DHT22;90;48.810;9.120;2024-02-21T16:06:31;12.40;48.60
210;DHT22;90;48.810;9.120;2024-02-21T16:08:59;12.30;49.10
210;DHT22;90;48.810;9.120;2024-02-21T16:11:26;12.30;49.50
210;DHT22;90;48.810;9.120;2024-02-21T16:13:52;12.20;50.00
210;DHT22;90;48.810;9.120;2024-02-21T16:16:20;12.20;50.20
210;DHT22;90;48.810;9.120;2024-02-21T16:18:47;12.20;50.60
210;DHT22;90;48.810;9.120;2024-02-21T16:21:13;12.20;50.90
210;DHT22;90;48.810;9.120;2024-02-21T16:23:40;12.20;51.60
210;DHT22;90;48.810;9.120;2024-02-21T16:26:08;12.20;51.80
210;DHT22;90;48.810;9.120;2024-02-21T16:28:37;12.20;52.50
210;DHT22;90;48.810;9.120;2024-02-21T16:31:04;12.10;53.00
210;DHT22;90;48.810;9.120;2024-02-21T16:33:30;12.10;53.40
210;DHT22;90;48.810;9.120;2024-02-21T16:35:58;12.10;54.00
210;DHT22;90;48.810;9.120;2024-02-21T16:38:25;12.00;55.10
210;DHT22;90;48.810;9.120;2024-02-21T16:40:52;11.90;55.90
210;DHT22;90;48.810;9.120;2024-02-21T16:43:20;11.90;56.80
210;DHT22;90;48.810;9.120;2024-02-21T16:45:47;11.80;57.70
210;DHT22;90;48.810;9.120;2024-02-21T16:48:14;11.80;57.90
210;DHT22;90;48.810;9.120;2024-02-21T16:50:41;11.80;58.20
210;DHT22;90;48.810;9.120;2024-02-21T16:53:07;11.80;58.40
210;DHT22;90;48.810;9.120;2024-02-21T16:55:34;11.70;59.10
210;DHT22;90;48.810;9.120;2024-02-21T16:58:01;11.70;59.70
210;DHT22;90;48.810;9.120;2024-02-21T17:00:33;11.90;72.30
210;DHT22;90;48.810;9.120;2024-02-21T17:03:04;11.90;64.70
210;DHT22;90;48.810;9.120;2024-02-21T17:05:31;11.80;60.90
210;DHT22;90;48.810;9.120;2024-02-21T17:07:57;11.80;61.10
210;DHT22;90;48.810;9.120;2024-02-21T17:10:24;11.70;61.50
210;DHT22;90;48.810;9.120;2024-02-21T17:12:51;11.60;61.40
210;DHT22;90;48.810;9.120;2024-02-21T17:15:18;11.50;61.70
210;DHT22;90;48.810;9.120;2024-02-21T17:17:46;11.50;61.70
210;DHT22;90;48.810;9.120;2024-02-21T17:20:13;11.50;62.10
210;DHT22;90;48.810;9.120;2024-02-21T17:22:42;11.50;61.60
210;DHT22;90;48.810;9.120;2024-02-21T17:25:09;11.50;61.80
210;DHT22;90;48.810;9.120;2024-02-21T17:27:36;11.50;62.00
210;DHT22;90;48.810;9.120;2024-02-21T17:30:04;11.50;61.80
210;DHT22;90;48.810;9.120;2024-02-21T17:32:31;11.40;62.50
210;DHT22;90;48.810;9.120;2024-02-21T17:35:01;11.40;62.20
210;DHT22;90;48.810;9.120;2024-02-21T17:37:29;11.40;62.30
210;DHT22;90;48.810;9.120;2024-02-21T17:39:56;11.40;62.20
210;DHT22;90;48.810;9.120;2024-02-21T17:42:23;11.40;62.20
210;DHT22;90;48.810;9.120;2024-02-21T17:44:50;11.40;61.60
210;DHT22;90;48.810;9.120;2024-02-21T17:47:17;11.40;60.90
210;DHT22;90;48.810;9.120;2024-02-21T17:49:44;11.40;61.10
210;DHT22;90;48.810;9.120;2024-02-21T17:52:13;11.40;60.80
210;DHT22;90;48.810;9.120;2024-02-21T17:54:39;11.40;60.80
210;DHT22;90;48.810;9.120;2024-02-21T17:57:09;11.40;60.10
210;DHT22;90;48.810;9.120;2024-02-21T17:59:38;11.40;59.80
210;DHT22;90;48.810;9.120;2024-02-21T18:02:05;11.40;59.50
210;DHT22;90;48.810;9.120;2024-02-21T18:04:32;11.40;59.20
210;DHT22;90;48.810;9.120;2024-02-21T18:06:59;11.40;58.80
210;DHT22;90;48.810;9.120;2024-02-21T18:09:27;11.40;58.20
210;DHT22;90;48.810;9.120;2024-02-21T18:11:54;11.40;57.40
210;DHT22;90;48.810;9.120;2024-02-21T18:14:20;11.50;56.80
210;DHT22;90;48.810;9.120;2024-02-21T18:16:47;11.50;56.70
210;DHT22;90;48.810;9.120;2024-02-21T18:19:14;11.60;56.30
210;DHT22;90;48.810;9.120;2024-02-21T18:21:40;11.60;55.80
210;DHT22;90;48.810;9.120;2024-02-21T18:24:07;11.60;55.80
210;DHT22;90;48.810;9.120;2024-02-21T18:26:37;11.60;55.80
210;DHT22;90;48.810;9.120;2024-02-21T18:29:04;11.60;55.50
210;DHT22;90;48.810;9.120;2024-02-21T18:31:30;11.60;55.00
210;DHT22;90;48.810;9.120;2024-02-21T18:33:57;11.60;55.10
210;DHT22;90;48.810;9.120;2024-02-21T18:36:26;11.60;54.70
210;DHT22;90;48.810;9.120;2024-02-21T18:38:53;11.60;54.40
210;DHT22;90;48.810;9.120;2024-02-21T18:41:21;11.60;54.50
210;DHT22;90;48.810;9.120;2024-02-21T18:43:49;11.60;54.20
210;DHT22;90;48.810;9.120;2024-02-21T18:46:16;11.60;53.90
210;DHT22;90;48.810;9.120;2024-02-21T18:48:43;11.60;54.40
210;DHT22;90;48.810;9.120;2024-02-21T18:51:12;11.60;53.30
210;DHT22;90;48.810;9.120;2024-02-21T18:53:40;11.60;53.20
210;DHT22;90;48.810;9.120;2024-02-21T18:56:07;11.60;52.70
210;DHT22;90;48.810;9.120;2024-02-21T18:58:34;11.60;52.80
210;DHT22;90;48.810;9.120;2024-02-21T19:01:02;11.70;52.90
210;DHT22;90;48.810;9.120;2024-02-21T19:03:29;11.70;53.10
210;DHT22;90;48.810;9.120;2024-02-21T19:05:56;11.70;53.10
210;DHT22;90;48.810;9.120;2024-02-21T19:08:22;11.80;53.00
210;DHT22;90;48.810;9.120;2024-02-21T19:10:49;11.80;53.10
210;DHT22;90;48.810;9.120;2024-02-21T19:13:16;11.80;53.20
210;DHT22;90;48.810;9.120;2024-02-21T19:15:43;11.90;53.10
210;DHT22;90;48.810;9.120;2024-02-21T19:18:11;11.90;53.50
210;DHT22;90;48.810;9.120;2024-02-21T19:20:38;11.90;53.50
210;DHT22;90;48.810;9.120;2024-02-21T19:23:05;11.90;53.80
210;DHT22;90;48.810;9.120;2024-02-21T19:25:33;11.90;53.70
210;DHT22;90;48.810;9.120;2024-02-21T19:28:00;11.90;54.10
210;DHT22;90;48.810;9.120;2024-02-21T19:30:27;11.90;54.00
210;DHT22;90;48.810;9.120;2024-02-21T19:32:54;11.90;54.00
210;DHT22;90;48.810;9.120;2024-02-21T19:35:22;11.90;54.10
210;DHT22;90;48.810;9.120;2024-02-21T19:37:48;11.90;54.30
210;DHT22;90;48.810;9.120;2024-02-21T19:40:16;12.00;54.10
210;DHT22;90;48.810;9.120;2024-02-21T19:42:43;12.00;53.90
210;DHT22;90;48.810;9.120;2024-02-21T19:45:10;12.00;53.90
210;DHT22;90;48.810;9.120;2024-02-21T19:47:36;11.90;54.20
210;DHT22;90;48.810;9.120;2024-02-21T19:50:04;11.90;54.00
210;DHT22;90;48.810;9.120;2024-02-21T19:52:32;12.00;54.00
210;DHT22;90;48.810;9.120;2024-02-21T19:54:59;11.90;54.10
210;DHT22;90;48.810;9.120;2024-02-21T19:57:26;11.90;54.50
210;DHT22;90;48.810;9.120;2024-02-21T19:59:53;11.90;54.60
210;DHT22;90;48.810;9.120;2024-02-21T20:02:20;11.90;54.80
210;DHT22;90;48.810;9.120;2024-02-21T20:04:49;11.80;54.70
210;DHT22;90;48.810;9.120;2024-02-21T20:07:16;11.80;54.90
210;DHT22;90;48.810;9.120;2024-02-21T20:09:44;11.80;55.00
210;DHT22;90;48.810;9.120;2024-02-21T20:12:11;11.70;55.10
210;DHT22;90;48.810;9.120;2024-02-21T20:14:38;11.70;55.30
210;DHT22;90;48.810;9.120;2024-02-21T20:17:04;11.70;55.20
210;DHT22;90;48.810;9.120;2024-02-21T20:19:31;11.80;55.30
210;DHT22;90;48.810;9.120;2024-02-21T20:21:58;11.70;55.40
210;DHT22;90;48.810;9.120;2024-02-21T20:24:25;11.70;55.50
210;DHT22;90;48.810;9.120;2024-02-21T20:26:53;11.70;55.80
210;DHT22;90;48.810;9.120;2024-02-21T20:29:19;11.70;55.70
210;DHT22;90;48.810;9.120;2024-02-21T20:31:46;11.80;55.70
210;DHT22;90;48.810;9.120;2024-02-21T20:34:13;11.80;55.70
210;DHT22;90;48.810;9.120;2024-02-21T20:36:41;11.80;55.80
210;DHT22;90;48.810;9.120;2024-02-21T20:39:08;11.80;55.30
210;DHT22;90;48.810;9.120;2024-02-21T20:41:35;11.80;55.40
210;DHT22;90;48.810;9.120;2024-02-21T20:44:03;11.90;55.60
210;DHT22;90;48.810;9.120;2024-02-21T20:46:31;11.90;55.40
210;DHT22;90;48.810;9.120;2024-02-21T20:48:58;11.90;55.60
210;DHT22;90;48.810;9.120;2024-02-21T20:51:24;11.80;55.90
210;DHT22;90;48.810;9.120;2024-02-21T20:53:51;11.90;55.80
210;DHT22;90;48.810;9.120;2024-02-21T20:56:18;11.80;56.10
210;DHT22;90;48.810;9.120;2024-02-21T20:58:45;11.80;56.20
210;DHT22;90;48.810;9.120;2024-02-21T21:01:13;11.80;56.30
210;DHT22;90;48.810;9.120;2024-02-21T21:03:41;11.80;56.40
210;DHT22;90;48.810;9.120;2024-02-21T21:06:08;11.80;60.40
210;DHT22;90;48.810;9.120;2024-02-21T21:08:34;12.10;58.80
210;DHT22;90;48.810;9.120;2024-02-21T21:11:01;12.10;57.10
210;DHT22;90;48.810;9.120;2024-02-21T21:13:28;12.20;74.70